sensor_id;sensor_type;location;lat;lon;timestamp;temperature;humidity
16995;DHT22;8614;48.522;9.206;2022-08-19T00:00:50;19.70;99.90
16995;DHT22;8614;48.522;9.206;2022-08-19T00:03:17;19.60;99.90
16995;DHT22;8614;48.522;9.206;2022-08-19T00:05:44;19.60;99.90
16995;DHT22;8614;48.522;9.206;2022-08-19T00:08:11;19.60;99.90
16995;DHT22;8614;48.522;9.206;2022-08-19T00:10:39;19.60;99.90
16995;DHT22;8614;48.522;9.206;2022-08-19T00:13:06;19.50;99.90
16995;DHT22;8614;48.522;9.206;2022-08-19T00:15:32;19.50;99.90
16995;DHT22;8614;48.522;9.206;2022-08-19T00:17:59;19.50;99.90
16995;DHT22;8614;48.522;9.206;2022-08-19T00:20:26;19.50;99.90
16995;DHT22;8614;48.522;9.206;2022-08-19T00:22:53;19.50;99.90
16995;DHT22;8614;48.522;9.206;2022-08-19T00:25:21;19.50;99.90
16995;DHT22;8614;48.522;9.206;2022-08-19T00:27:49;19.40;99.90
16995;DHT22;8614;48.522;9.206;2022-08-19T00:30:16;19.40;99.90
16995;DHT22;8614;48.522;9.206;2022-08-19T00:32:43;19.40;99.90
16995;DHT22;8614;48.522;9.206;2022-08-19T00:35:10;19.30;99.90
16995;DHT22;8614;48.522;9.206;2022-08-19T00:37:38;19.30;99.90
16995;DHT22;8614;48.522;9.206;2022-08-19T00:40:11;19.30;99.90
16995;DHT22;8614;48.522;9.206;2022-08-19T00:42:38;19.30;99.90
16995;DHT22;8614;48.522;9.206;2022-08-19T00:45:13;19.30;99.90
16995;DHT22;8614;48.522;9.206;2022-08-19T00:47:40;19.30;99.90
16995;DHT22;8614;48.522;9.206;2022-08-19T00:50:09;19.30;99.90
16995;DHT22;8614;48.522;9.206;2022-08-19T00:52:39;19.30;99.90
16995;DHT22;8614;48.522;9.206;2022-08-19T00:55:12;19.30;99.90
16995;DHT22;8614;48.522;9.206;2022-08-19T00:57:46;19.30;99.90
16995;DHT22;8614;48.522;9.206;2022-08-19T01:00:18;19.30;99.90
16995;DHT22;8614;48.522;9.206;2022-08-19T01:02:45;19.30;99.90
16995;DHT22;8614;48.522;9.206;2022-08-19T01:05:17;19.20;99.90
16995;DHT22;8614;48.522;9.206;2022-08-19T01:07:47;19.20;99.90
16995;DHT22;8614;48.522;9.206;2022-08-19T01:10:16;19.20;99.90
16995;DHT22;8614;48.522;9.206;2022-08-19T01:12:45;19.20;99.90
16995;DHT22;8614;48.522;9.206;2022-08-19T01:15:16;19.20;99.90
16995;DHT22;8614;48.522;9.206;2022-08-19T01:17:44;19.20;99.90
16995;DHT22;8614;48.522;9.206;2022-08-19T01:20:13;19.20;99.90
16995;DHT22;8614;48.522;9.206;2022-08-19T01:22:44;19.20;99.90
16995;DHT22;8614;48.522;9.206;2022-08-19T01:25:12;19.20;99.90
16995;DHT22;8614;48.522;9.206;2022-08-19T01:27:41;19.20;99.90
16995;DHT22;8614;48.522;9.206;2022-08-19T01:30:11;19.20;99.90
16995;DHT22;8614;48.522;9.206;2022-08-19T01:32:38;19.20;99.90
16995;DHT22;8614;48.522;9.206;2022-08-19T01:35:05;19.10;99.90
16995;DHT22;8614;48.522;9.206;2022-08-19T01:37:46;19.10;99.90
16995;DHT22;8614;48.522;9.206;2022-08-19T01:40:13;19.10;99.90
16995;DHT22;8614;48.522;9.206;2022-08-19T01:42:40;19.10;99.90
16995;DHT22;8614;48.522;9.206;2022-08-19T01:45:08;19.00;99.90
16995;DHT22;8614;48.522;9.206;2022-08-19T01:47:35;19.00;99.90
16995;DHT22;8614;48.522;9.206;2022-08-19T01:50:04;19.00;99.90
16995;DHT22;8614;48.522;9.206;2022-08-19T01:52:32;19.00;99.90
16995;DHT22;8614;48.522;9.206;2022-08-19T01:55:03;19.00;99.90
16995;DHT22;8614;48.522;9.206;2022-08-19T01:57:30;19.00;99.90
16995;DHT22;8614;48.522;9.206;2022-08-19T01:59:57;19.00;99.90
16995;DHT22;8614;48.522;9.206;2022-08-19T02:02:25;19.00;99.90
16995;DHT22;8614;48.522;9.206;2022-08-19T02:04:52;19.00;99.90
16995;DHT22;8614;48.522;9.206;2022-08-19T02:07:19;18.90;99.90
16995;DHT22;8614;48.522;9.206;2022-08-19T02:09:47;18.90;99.90
16995;DHT22;8614;48.522;9.206;2022-08-19T02:12:15;19.00;99.90
16995;DHT22;8614;48.522;9.206;2022-08-19T02:14:42;19.00;99.90
16995;DHT22;8614;48.522;9.206;2022-08-19T02:17:09;19.00;99.90
16995;DHT22;8614;48.522;9.206;2022-08-19T02:19:36;19.00;99.90
16995;DHT22;8614;48.522;9.206;2022-08-19T02:22:03;18.90;99.90
16995;DHT22;8614;48.522;9.206;2022-08-19T02:24:30;19.00;99.90
16995;DHT22;8614;48.522;9.206;2022-08-19T02:26:57;19.00;99.90
16995;DHT22;8614;48.522;9.206;2022-08-19T02:29:25;18.90;99.90
16995;DHT22;8614;48.522;9.206;2022-08-19T02:31:52;18.90;99.90
16995;DHT22;8614;48.522;9.206;2022-08-19T02:34:19;18.90;99.90
16995;DHT22;8614;48.522;9.206;2022-08-19T02:36:45;18.90;99.90
16995;DHT22;8614;48.522;9.206;2022-08-19T02:39:12;18.90;99.90
16995;DHT22;8614;48.522;9.206;2022-08-19T02:41:39;18.90;99.90
16995;DHT22;8614;48.522;9.206;2022-08-19T02:44:06;18.90;99.90
16995;DHT22;8614;48.522;9.206;2022-08-19T02:46:34;18.90;99.90
16995;DHT22;8614;48.522;9.206;2022-08-19T02:49:04;18.80;99.90
16995;DHT22;8614;48.522;9.206;2022-08-19T02:51:34;18.80;99.90
16995;DHT22;8614;48.522;9.206;2022-08-19T02:54:01;18.80;99.90
16995;DHT22;8614;48.522;9.206;2022-08-19T02:56:29;18.80;99.90
16995;DHT22;8614;48.522;9.206;2022-08-19T02:58:56;18.80;99.90
16995;DHT22;8614;48.522;9.206;2022-08-19T03:01:26;18.80;99.90
16995;DHT22;8614;48.522;9.206;2022-08-19T03:03:55;18.70;99.90
16995;DHT22;8614;48.522;9.206;2022-08-19T03:06:23;18.70;99.90
16995;DHT22;8614;48.522;9.206;2022-08-19T03:08:50;18.70;99.90
16995;DHT22;8614;48.522;9.206;2022-08-19T03:11:19;18.70;99.90
16995;DHT22;8614;48.522;9.206;2022-08-19T03:13:47;18.70;99.90
16995;DHT22;8614;48.522;9.206;2022-08-19T03:16:16;18.70;99.90
16995;DHT22;8614;48.522;9.206;2022-08-19T03:18:43;18.60;99.90
16995;DHT22;8614;48.522;9.206;2022-08-19T03:21:15;18.60;99.90
16995;DHT22;8614;48.522;9.206;2022-08-19T03:23:42;18.60;99.90
16995;DHT22;8614;48.522;9.206;2022-08-19T03:26:09;18.60;99.90
16995;DHT22;8614;48.522;9.206;2022-08-19T03:28:36;18.60;99.90
16995;DHT22;8614;48.522;9.206;2022-08-19T03:31:05;18.50;99.90
16995;DHT22;8614;48.522;9.206;2022-08-19T03:33:33;18.50;99.90
16995;DHT22;8614;48.522;9.206;2022-08-19T03:36:13;18.50;99.90
16995;DHT22;8614;48.522;9.206;2022-08-19T03:38:43;18.50;99.90
16995;DHT22;8614;48.522;9.206;2022-08-19T03:41:13;18.50;99.90
16995;DHT22;8614;48.522;9.206;2022-08-19T03:43:42;18.50;99.90
16995;DHT22;8614;48.522;9.206;2022-08-19T03:46:12;18.50;99.90
16995;DHT22;8614;48.522;9.206;2022-08-19T03:48:40;18.50;99.90
16995;DHT22;8614;48.522;9.206;2022-08-19T03:51:07;18.50;99.90
16995;DHT22;8614;48.522;9.206;2022-08-19T03:53:42;18.50;99.90
16995;DHT22;8614;48.522;9.206;2022-08-19T03:56:09;18.50;99.90
16995;DHT22;8614;48.522;9.206;2022-08-19T03:58:39;18.40;99.90
16995;DHT22;8614;48.522;9.206;2022-08-19T04:01:07;18.40;99.90
16995;DHT22;8614;48.522;9.206;2022-08-19T04:03:34;18.40;99.90
16995;DHT22;8614;48.522;9.206;2022-08-19T04:06:09;18.40;99.90
16995;DHT22;8614;48.522;9.206;2022-08-19T04:08:36;18.40;99.90
16995;DHT22;8614;48.522;9.206;2022-08-19T04:11:10;18.40;99.90
16995;DHT22;8614;48.522;9.206;2022-08-19T04:13:38;18.40;99.90
16995;DHT22;8614;48.522;9.206;2022-08-19T04:16:06;18.40;99.90
16995;DHT22;8614;48.522;9.206;2022-08-19T04:18:35;18.40;99.90
16995;DHT22;8614;48.522;9.206;2022-08-19T04:21:03;18.40;99.90
16995;DHT22;8614;48.522;9.206;2022-08-19T04:23:31;18.40;99.90
16995;DHT22;8614;48.522;9.206;2022-08-19T04:25:58;18.30;99.90
16995;DHT22;8614;48.522;9.206;2022-08-19T04:28:26;18.40;99.90
16995;DHT22;8614;48.522;9.206;2022-08-19T04:30:54;18.40;99.90
16995;DHT22;8614;48.522;9.206;2022-08-19T04:33:25;18.30;99.90
16995;DHT22;8614;48.522;9.206;2022-08-19T04:35:54;18.30;99.90
16995;DHT22;8614;48.522;9.206;2022-08-19T04:38:22;18.40;99.90
16995;DHT22;8614;48.522;9.206;2022-08-19T04:40:51;18.40;99.90
16995;DHT22;8614;48.522;9.206;2022-08-19T04:43:38;18.40;99.90
16995;DHT22;8614;48.522;9.206;2022-08-19T04:46:05;18.40;99.90
16995;DHT22;8614;48.522;9.206;2022-08-19T04:48:32;18.50;99.90
16995;DHT22;8614;48.522;9.206;2022-08-19T04:50:59;18.50;99.90
16995;DHT22;8614;48.522;9.206;2022-08-19T04:53:27;18.50;99.90
16995;DHT22;8614;48.522;9.206;2022-08-19T04:55:54;18.50;99.90
16995;DHT22;8614;48.522;9.206;2022-08-19T04:58:22;18.60;99.90
16995;DHT22;8614;48.522;9.206;2022-08-19T05:00:50;18.60;99.90
16995;DHT22;8614;48.522;9.206;2022-08-19T05:03:17;18.50;99.90
16995;DHT22;8614;48.522;9.206;2022-08-19T05:05:45;18.60;99.90
16995;DHT22;8614;48.522;9.206;2022-08-19T05:08:15;18.60;99.90
16995;DHT22;8614;48.522;9.206;2022-08-19T05:10:46;18.60;99.90
16995;DHT22;8614;48.522;9.206;2022-08-19T05:13:13;18.70;99.90
16995;DHT22;8614;48.522;9.206;2022-08-19T05:15:41;18.70;99.90
16995;DHT22;8614;48.522;9.206;2022-08-19T05:18:10;18.70;99.90
16995;DHT22;8614;48.522;9.206;2022-08-19T05:20:54;18.70;99.90
16995;DHT22;8614;48.522;9.206;2022-08-19T05:23:39;18.70;99.90
16995;DHT22;8614;48.522;9.206;2022-08-19T05:26:06;18.70;99.90
16995;DHT22;8614;48.522;9.206;2022-08-19T05:28:34;18.70;99.90
16995;DHT22;8614;48.522;9.206;2022-08-19T05:31:01;18.70;99.90
16995;DHT22;8614;48.522;9.206;2022-08-19T05:33:30;18.70;99.90
16995;DHT22;8614;48.522;9.206;2022-08-19T05:35:56;18.80;99.90
16995;DHT22;8614;48.522;9.206;2022-08-19T05:38:24;18.80;99.90
16995;DHT22;8614;48.522;9.206;2022-08-19T05:40:52;18.70;99.90
16995;DHT22;8614;48.522;9.206;2022-08-19T05:43:18;18.70;99.90
16995;DHT22;8614;48.522;9.206;2022-08-19T05:45:45;18.80;99.90
16995;DHT22;8614;48.522;9.206;2022-08-19T05:48:12;18.80;99.90
16995;DHT22;8614;48.522;9.206;2022-08-19T05:50:41;18.80;99.90
16995;DHT22;8614;48.522;9.206;2022-08-19T05:53:09;18.80;99.90
16995;DHT22;8614;48.522;9.206;2022-08-19T05:55:37;18.80;99.90
16995;DHT22;8614;48.522;9.206;2022-08-19T05:58:05;18.80;99.90
16995;DHT22;8614;48.522;9.206;2022-08-19T06:00:33;18.80;99.90
16995;DHT22;8614;48.522;9.206;2022-08-19T06:02:59;18.80;99.90
16995;DHT22;8614;48.522;9.206;2022-08-19T06:05:29;18.90;99.90
16995;DHT22;8614;48.522;9.206;2022-08-19T06:07:57;18.90;99.90
16995;DHT22;8614;48.522;9.206;2022-08-19T06:10:25;18.90;99.90
16995;DHT22;8614;48.522;9.206;2022-08-19T06:12:52;18.90;99.90
16995;DHT22;8614;48.522;9.206;2022-08-19T06:15:19;18.90;99.90
16995;DHT22;8614;48.522;9.206;2022-08-19T06:17:51;19.00;99.90
16995;DHT22;8614;48.522;9.206;2022-08-19T06:20:18;19.00;99.90
16995;DHT22;8614;48.522;9.206;2022-08-19T06:22:47;19.00;99.90
16995;DHT22;8614;48.522;9.206;2022-08-19T06:25:16;19.10;99.90
16995;DHT22;8614;48.522;9.206;2022-08-19T06:27:44;19.10;99.90
16995;DHT22;8614;48.522;9.206;2022-08-19T06:30:11;19.10;99.90
16995;DHT22;8614;48.522;9.206;2022-08-19T06:32:38;19.10;99.90
16995;DHT22;8614;48.522;9.206;2022-08-19T06:35:06;19.10;99.90
16995;DHT22;8614;48.522;9.206;2022-08-19T06:37:33;19.10;99.90
16995;DHT22;8614;48.522;9.206;2022-08-19T06:40:00;19.20;99.90
16995;DHT22;8614;48.522;9.206;2022-08-19T06:42:28;19.10;99.90
16995;DHT22;8614;48.522;9.206;2022-08-19T06:44:55;19.10;99.90
16995;DHT22;8614;48.522;9.206;2022-08-19T06:47:23;19.20;99.90
16995;DHT22;8614;48.522;9.206;2022-08-19T06:49:53;19.20;99.90
16995;DHT22;8614;48.522;9.206;2022-08-19T06:52:21;19.20;99.90
16995;DHT22;8614;48.522;9.206;2022-08-19T06:54:49;19.20;99.90
16995;DHT22;8614;48.522;9.206;2022-08-19T06:57:16;19.20;99.90
16995;DHT22;8614;48.522;9.206;2022-08-19T06:59:44;19.20;99.90
16995;DHT22;8614;48.522;9.206;2022-08-19T07:02:10;19.20;99.90
16995;DHT22;8614;48.522;9.206;2022-08-19T07:04:38;19.20;99.90
16995;DHT22;8614;48.522;9.206;2022-08-19T07:07:10;19.10;99.90
16995;DHT22;8614;48.522;9.206;2022-08-19T07:09:40;19.10;99.90
16995;DHT22;8614;48.522;9.206;2022-08-19T07:12:09;19.10;99.90
16995;DHT22;8614;48.522;9.206;2022-08-19T07:14:37;19.10;99.90
16995;DHT22;8614;48.522;9.206;2022-08-19T07:17:07;19.10;99.90
16995;DHT22;8614;48.522;9.206;2022-08-19T07:19:35;19.00;99.90
16995;DHT22;8614;48.522;9.206;2022-08-19T07:22:04;19.10;99.90
16995;DHT22;8614;48.522;9.206;2022-08-19T07:24:31;19.00;99.90
16995;DHT22;8614;48.522;9.206;2022-08-19T07:27:00;19.00;99.90
16995;DHT22;8614;48.522;9.206;2022-08-19T07:29:30;19.00;99.90
16995;DHT22;8614;48.522;9.206;2022-08-19T07:31:59;19.10;99.90
16995;DHT22;8614;48.522;9.206;2022-08-19T07:34:29;19.10;99.90
16995;DHT22;8614;48.522;9.206;2022-08-19T07:36:56;19.10;99.90
16995;DHT22;8614;48.522;9.206;2022-08-19T07:39:25;19.10;99.90
16995;DHT22;8614;48.522;9.206;2022-08-19T07:41:53;19.10;99.90
16995;DHT22;8614;48.522;9.206;2022-08-19T07:44:20;19.10;99.90
16995;DHT22;8614;48.522;9.206;2022-08-19T07:46:51;19.10;99.90
16995;DHT22;8614;48.522;9.206;2022-08-19T07:49:18;19.20;99.90
16995;DHT22;8614;48.522;9.206;2022-08-19T07:51:49;19.20;99.90
16995;DHT22;8614;48.522;9.206;2022-08-19T07:54:16;19.20;99.90
16995;DHT22;8614;48.522;9.206;2022-08-19T07:56:43;19.20;99.90
16995;DHT22;8614;48.522;9.206;2022-08-19T07:59:10;19.20;99.90
16995;DHT22;8614;48.522;9.206;2022-08-19T08:01:37;19.20;99.90
16995;DHT22;8614;48.522;9.206;2022-08-19T08:04:06;19.20;99.90
16995;DHT22;8614;48.522;9.206;2022-08-19T08:06:52;19.10;99.90
16995;DHT22;8614;48.522;9.206;2022-08-19T08:09:38;19.10;99.90
16995;DHT22;8614;48.522;9.206;2022-08-19T08:12:08;19.00;99.90
16995;DHT22;8614;48.522;9.206;2022-08-19T08:14:38;19.00;99.90
16995;DHT22;8614;48.522;9.206;2022-08-19T08:17:07;19.00;99.90
16995;DHT22;8614;48.522;9.206;2022-08-19T08:19:35;19.00;99.90
16995;DHT22;8614;48.522;9.206;2022-08-19T08:22:03;19.00;99.90
16995;DHT22;8614;48.522;9.206;2022-08-19T08:24:33;19.10;99.90
16995;DHT22;8614;48.522;9.206;2022-08-19T08:27:01;19.10;99.90
16995;DHT22;8614;48.522;9.206;2022-08-19T08:29:30;19.10;99.90
16995;DHT22;8614;48.522;9.206;2022-08-19T08:31:57;19.10;99.90
16995;DHT22;8614;48.522;9.206;2022-08-19T08:34:24;19.10;99.90
16995;DHT22;8614;48.522;9.206;2022-08-19T08:36:51;19.10;99.90
16995;DHT22;8614;48.522;9.206;2022-08-19T08:39:20;19.00;99.90
16995;DHT22;8614;48.522;9.206;2022-08-19T08:41:53;19.00;99.90
16995;DHT22;8614;48.522;9.206;2022-08-19T08:44:27;18.90;99.90
16995;DHT22;8614;48.522;9.206;2022-08-19T08:47:01;18.80;99.90
16995;DHT22;8614;48.522;9.206;2022-08-19T08:49:33;18.80;99.90
16995;DHT22;8614;48.522;9.206;2022-08-19T08:52:07;18.80;99.90
16995;DHT22;8614;48.522;9.206;2022-08-19T08:54:40;18.80;99.90
16995;DHT22;8614;48.522;9.206;2022-08-19T08:57:12;18.70;99.90
16995;DHT22;8614;48.522;9.206;2022-08-19T08:59:41;18.70;99.90
16995;DHT22;8614;48.522;9.206;2022-08-19T09:02:09;18.70;99.90
16995;DHT22;8614;48.522;9.206;2022-08-19T09:04:37;18.80;99.90
16995;DHT22;8614;48.522;9.206;2022-08-19T09:07:28;18.70;99.90
16995;DHT22;8614;48.522;9.206;2022-08-19T09:10:09;18.70;99.90
16995;DHT22;8614;48.522;9.206;2022-08-19T09:12:42;18.80;99.90
16995;DHT22;8614;48.522;9.206;2022-08-19T09:15:12;18.80;99.90
16995;DHT22;8614;48.522;9.206;2022-08-19T09:17:39;18.70;99.90
16995;DHT22;8614;48.522;9.206;2022-08-19T09:20:15;18.70;99.90
16995;DHT22;8614;48.522;9.206;2022-08-19T09:22:44;18.70;99.90
16995;DHT22;8614;48.522;9.206;2022-08-19T09:25:15;18.70;99.90
16995;DHT22;8614;48.522;9.206;2022-08-19T09:27:42;18.70;99.90
16995;DHT22;8614;48.522;9.206;2022-08-19T09:30:14;18.70;99.90
16995;DHT22;8614;48.522;9.206;2022-08-19T09:32:41;18.70;99.90
16995;DHT22;8614;48.522;9.206;2022-08-19T09:35:09;18.70;99.90
16995;DHT22;8614;48.522;9.206;2022-08-19T09:37:35;18.70;99.90
16995;DHT22;8614;48.522;9.206;2022-08-19T09:40:03;18.80;99.90
16995;DHT22;8614;48.522;9.206;2022-08-19T09:42:32;18.80;99.90
16995;DHT22;8614;48.522;9.206;2022-08-19T09:44:59;18.80;99.90
16995;DHT22;8614;48.522;9.206;2022-08-19T09:47:26;18.80;99.90
16995;DHT22;8614;48.522;9.206;2022-08-19T09:49:52;18.80;99.90
16995;DHT22;8614;48.522;9.206;2022-08-19T09:52:20;18.90;99.90
16995;DHT22;8614;48.522;9.206;2022-08-19T09:54:47;18.90;99.90
16995;DHT22;8614;48.522;9.206;2022-08-19T09:57:14;18.90;99.90
16995;DHT22;8614;48.522;9.206;2022-08-19T09:59:42;18.90;99.90
16995;DHT22;8614;48.522;9.206;2022-08-19T10:02:09;18.90;99.90
16995;DHT22;8614;48.522;9.206;2022-08-19T10:04:37;18.90;99.90
16995;DHT22;8614;48.522;9.206;2022-08-19T10:07:30;18.80;99.90
16995;DHT22;8614;48.522;9.206;2022-08-19T10:09:57;18.90;99.90
16995;DHT22;8614;48.522;9.206;2022-08-19T10:12:24;18.90;99.90
16995;DHT22;8614;48.522;9.206;2022-08-19T10:14:52;18.90;99.90
16995;DHT22;8614;48.522;9.206;2022-08-19T10:17:20;18.80;99.90
16995;DHT22;8614;48.522;9.206;2022-08-19T10:19:47;18.90;99.90
16995;DHT22;8614;48.522;9.206;2022-08-19T10:22:13;18.90;99.90
16995;DHT22;8614;48.522;9.206;2022-08-19T10:24:41;18.90;99.90
16995;DHT22;8614;48.522;9.206;2022-08-19T10:27:08;18.90;99.90
16995;DHT22;8614;48.522;9.206;2022-08-19T10:29:35;18.90;99.90
16995;DHT22;8614;48.522;9.206;2022-08-19T10:32:04;18.90;99.90
16995;DHT22;8614;48.522;9.206;2022-08-19T10:34:35;18.90;99.90
16995;DHT22;8614;48.522;9.206;2022-08-19T10:37:02;18.90;99.90
16995;DHT22;8614;48.522;9.206;2022-08-19T10:39:32;18.90;99.90
16995;DHT22;8614;48.522;9.206;2022-08-19T10:41:59;18.90;99.90
16995;DHT22;8614;48.522;9.206;2022-08-19T10:44:26;18.90;99.90
16995;DHT22;8614;48.522;9.206;2022-08-19T10:46:53;19.00;99.90
16995;DHT22;8614;48.522;9.206;2022-08-19T10:49:22;19.00;99.90
16995;DHT22;8614;48.522;9.206;2022-08-19T10:51:49;18.90;99.90
16995;DHT22;8614;48.522;9.206;2022-08-19T10:54:34;18.90;99.90
16995;DHT22;8614;48.522;9.206;2022-08-19T10:57:20;19.00;99.90
16995;DHT22;8614;48.522;9.206;2022-08-19T10:59:50;19.00;99.90
16995;DHT22;8614;48.522;9.206;2022-08-19T11:02:16;18.90;99.90
16995;DHT22;8614;48.522;9.206;2022-08-19T11:04:44;18.90;99.90
16995;DHT22;8614;48.522;9.206;2022-08-19T11:07:11;18.90;99.90
16995;DHT22;8614;48.522;9.206;2022-08-19T11:09:39;18.90;99.90
16995;DHT22;8614;48.522;9.206;2022-08-19T11:12:07;18.90;99.90
16995;DHT22;8614;48.522;9.206;2022-08-19T11:14:35;18.90;99.90
16995;DHT22;8614;48.522;9.206;2022-08-19T11:17:03;18.90;99.90
16995;DHT22;8614;48.522;9.206;2022-08-19T11:19:30;18.90;99.90
16995;DHT22;8614;48.522;9.206;2022-08-19T11:21:59;18.90;99.90
16995;DHT22;8614;48.522;9.206;2022-08-19T11:24:28;18.90;99.90
16995;DHT22;8614;48.522;9.206;2022-08-19T11:27:04;18.90;99.90
16995;DHT22;8614;48.522;9.206;2022-08-19T11:29:32;19.00;99.90
16995;DHT22;8614;48.522;9.206;2022-08-19T11:32:02;19.00;99.90
16995;DHT22;8614;48.522;9.206;2022-08-19T11:34:30;19.00;99.90
16995;DHT22;8614;48.522;9.206;2022-08-19T11:36:58;19.10;99.90
16995;DHT22;8614;48.522;9.206;2022-08-19T11:39:28;19.10;99.90
16995;DHT22;8614;48.522;9.206;2022-08-19T11:41:57;19.10;99.90
16995;DHT22;8614;48.522;9.206;2022-08-19T11:44:24;19.20;99.90
16995;DHT22;8614;48.522;9.206;2022-08-19T11:46:51;19.20;99.90
16995;DHT22;8614;48.522;9.206;2022-08-19T11:49:19;19.20;99.90
16995;DHT22;8614;48.522;9.206;2022-08-19T11:51:47;19.30;99.90
16995;DHT22;8614;48.522;9.206;2022-08-19T11:54:18;19.20;99.90
16995;DHT22;8614;48.522;9.206;2022-08-19T11:56:45;19.20;99.90
16995;DHT22;8614;48.522;9.206;2022-08-19T11:59:13;19.20;99.90
16995;DHT22;8614;48.522;9.206;2022-08-19T12:01:40;19.20;99.90
16995;DHT22;8614;48.522;9.206;2022-08-19T12:04:08;19.10;99.90
16995;DHT22;8614;48.522;9.206;2022-08-19T12:06:38;19.20;99.90
16995;DHT22;8614;48.522;9.206;2022-08-19T12:09:07;19.20;99.90
16995;DHT22;8614;48.522;9.206;2022-08-19T12:11:36;19.20;99.90
16995;DHT22;8614;48.522;9.206;2022-08-19T12:14:04;19.20;99.90
16995;DHT22;8614;48.522;9.206;2022-08-19T12:16:32;19.20;99.90
16995;DHT22;8614;48.522;9.206;2022-08-19T12:19:00;19.20;99.90
16995;DHT22;8614;48.522;9.206;2022-08-19T12:21:30;19.20;99.90
16995;DHT22;8614;48.522;9.206;2022-08-19T12:23:59;19.20;99.90
16995;DHT22;8614;48.522;9.206;2022-08-19T12:26:27;19.30;99.90
16995;DHT22;8614;48.522;9.206;2022-08-19T12:28:59;19.30;99.90
16995;DHT22;8614;48.522;9.206;2022-08-19T12:31:26;19.30;99.90
16995;DHT22;8614;48.522;9.206;2022-08-19T12:33:53;19.30;99.90
16995;DHT22;8614;48.522;9.206;2022-08-19T12:36:20;19.20;99.90
16995;DHT22;8614;48.522;9.206;2022-08-19T12:38:48;19.30;99.90
16995;DHT22;8614;48.522;9.206;2022-08-19T12:41:16;19.30;99.90
16995;DHT22;8614;48.522;9.206;2022-08-19T12:43:44;19.30;99.90
16995;DHT22;8614;48.522;9.206;2022-08-19T12:46:12;19.50;99.90
16995;DHT22;8614;48.522;9.206;2022-08-19T12:48:39;19.60;99.90
16995;DHT22;8614;48.522;9.206;2022-08-19T12:51:10;19.60;99.90
16995;DHT22;8614;48.522;9.206;2022-08-19T12:53:37;19.60;99.90
16995;DHT22;8614;48.522;9.206;2022-08-19T12:56:05;19.60;99.90
16995;DHT22;8614;48.522;9.206;2022-08-19T12:58:32;19.60;99.90
16995;DHT22;8614;48.522;9.206;2022-08-19T13:01:05;19.60;99.90
16995;DHT22;8614;48.522;9.206;2022-08-19T13:03:33;19.60;99.90
16995;DHT22;8614;48.522;9.206;2022-08-19T13:06:00;19.50;99.90
16995;DHT22;8614;48.522;9.206;2022-08-19T13:08:27;19.50;99.90
16995;DHT22;8614;48.522;9.206;2022-08-19T13:10:54;19.50;99.90
16995;DHT22;8614;48.522;9.206;2022-08-19T13:13:21;19.50;99.90
16995;DHT22;8614;48.522;9.206;2022-08-19T13:15:48;19.60;99.90
16995;DHT22;8614;48.522;9.206;2022-08-19T13:18:14;19.60;99.90
16995;DHT22;8614;48.522;9.206;2022-08-19T13:20:43;19.70;99.90
16995;DHT22;8614;48.522;9.206;2022-08-19T13:23:10;19.70;99.90
16995;DHT22;8614;48.522;9.206;2022-08-19T13:25:37;19.70;99.90
16995;DHT22;8614;48.522;9.206;2022-08-19T13:28:04;19.70;99.90
16995;DHT22;8614;48.522;9.206;2022-08-19T13:30:32;19.70;99.90
16995;DHT22;8614;48.522;9.206;2022-08-19T13:33:17;19.80;99.90
16995;DHT22;8614;48.522;9.206;2022-08-19T13:35:48;19.70;99.90
16995;DHT22;8614;48.522;9.206;2022-08-19T13:38:17;19.70;99.90
16995;DHT22;8614;48.522;9.206;2022-08-19T13:40:45;19.70;99.90
16995;DHT22;8614;48.522;9.206;2022-08-19T13:43:12;19.70;99.90
16995;DHT22;8614;48.522;9.206;2022-08-19T13:45:39;19.60;99.90
16995;DHT22;8614;48.522;9.206;2022-08-19T13:48:07;19.50;99.90
16995;DHT22;8614;48.522;9.206;2022-08-19T13:50:37;19.50;99.90
16995;DHT22;8614;48.522;9.206;2022-08-19T13:53:08;19.50;99.90
16995;DHT22;8614;48.522;9.206;2022-08-19T13:55:37;19.50;99.90
16995;DHT22;8614;48.522;9.206;2022-08-19T13:58:04;19.60;99.90
16995;DHT22;8614;48.522;9.206;2022-08-19T14:00:36;19.60;99.90
16995;DHT22;8614;48.522;9.206;2022-08-19T14:03:04;19.70;99.90
16995;DHT22;8614;48.522;9.206;2022-08-19T14:05:31;19.70;99.90
16995;DHT22;8614;48.522;9.206;2022-08-19T14:07:58;19.70;99.90
16995;DHT22;8614;48.522;9.206;2022-08-19T14:10:27;19.60;99.90
16995;DHT22;8614;48.522;9.206;2022-08-19T14:12:58;19.50;99.90
16995;DHT22;8614;48.522;9.206;2022-08-19T14:15:25;19.40;99.90
16995;DHT22;8614;48.522;9.206;2022-08-19T14:17:52;19.30;99.90
16995;DHT22;8614;48.522;9.206;2022-08-19T14:20:20;19.30;99.90
16995;DHT22;8614;48.522;9.206;2022-08-19T14:22:48;19.30;99.90
16995;DHT22;8614;48.522;9.206;2022-08-19T14:25:17;19.30;99.90
16995;DHT22;8614;48.522;9.206;2022-08-19T14:27:46;19.20;99.90
16995;DHT22;8614;48.522;9.206;2022-08-19T14:30:15;19.30;99.90
16995;DHT22;8614;48.522;9.206;2022-08-19T14:32:43;19.30;99.90
16995;DHT22;8614;48.522;9.206;2022-08-19T14:35:10;19.30;99.90
16995;DHT22;8614;48.522;9.206;2022-08-19T14:37:38;19.30;99.90
16995;DHT22;8614;48.522;9.206;2022-08-19T14:40:06;19.30;99.90
16995;DHT22;8614;48.522;9.206;2022-08-19T14:42:33;19.20;99.90
16995;DHT22;8614;48.522;9.206;2022-08-19T14:45:02;19.20;99.90
16995;DHT22;8614;48.522;9.206;2022-08-19T14:47:31;19.20;99.90
16995;DHT22;8614;48.522;9.206;2022-08-19T14:49:58;19.10;99.90
16995;DHT22;8614;48.522;9.206;2022-08-19T14:52:25;19.00;99.90
16995;DHT22;8614;48.522;9.206;2022-08-19T14:54:52;19.10;99.90
16995;DHT22;8614;48.522;9.206;2022-08-19T14:57:19;19.00;99.90
16995;DHT22;8614;48.522;9.206;2022-08-19T14:59:46;19.00;99.90
16995;DHT22;8614;48.522;9.206;2022-08-19T15:02:14;18.90;99.90
16995;DHT22;8614;48.522;9.206;2022-08-19T15:04:41;18.90;99.90
16995;DHT22;8614;48.522;9.206;2022-08-19T15:07:09;19.00;99.90
16995;DHT22;8614;48.522;9.206;2022-08-19T15:09:36;19.00;99.90
16995;DHT22;8614;48.522;9.206;2022-08-19T15:12:03;19.00;99.90
16995;DHT22;8614;48.522;9.206;2022-08-19T15:14:31;19.00;99.90
16995;DHT22;8614;48.522;9.206;2022-08-19T15:17:01;19.00;99.90
16995;DHT22;8614;48.522;9.206;2022-08-19T15:19:30;19.00;99.90
16995;DHT22;8614;48.522;9.206;2022-08-19T15:21:57;19.10;99.90
16995;DHT22;8614;48.522;9.206;2022-08-19T15:24:24;19.20;99.90
16995;DHT22;8614;48.522;9.206;2022-08-19T15:26:52;19.30;99.90
16995;DHT22;8614;48.522;9.206;2022-08-19T15:29:21;19.40;99.90
16995;DHT22;8614;48.522;9.206;2022-08-19T15:31:50;19.50;99.90
16995;DHT22;8614;48.522;9.206;2022-08-19T15:34:17;19.70;99.90
16995;DHT22;8614;48.522;9.206;2022-08-19T15:36:45;19.80;99.90
16995;DHT22;8614;48.522;9.206;2022-08-19T15:39:12;19.90;99.90
16995;DHT22;8614;48.522;9.206;2022-08-19T15:41:38;19.90;99.90
16995;DHT22;8614;48.522;9.206;2022-08-19T15:44:08;19.90;99.90
16995;DHT22;8614;48.522;9.206;2022-08-19T15:46:38;19.90;99.90
16995;DHT22;8614;48.522;9.206;2022-08-19T15:49:06;19.90;99.90
16995;DHT22;8614;48.522;9.206;2022-08-19T15:51:34;19.90;99.90
16995;DHT22;8614;48.522;9.206;2022-08-19T15:54:03;19.90;99.90